Time;durP1;ratioP1;P1;durP2;ratioP2;P2;SDS_P1;SDS_P2;PMS_P1;PMS_P2;Temp;Humidity;BMP_temperature;BMP_pressure;BME280_temperature;BME280_humidity;BME280_pressure;Samples;Min_cycle;Max_cycle;Signal;HPM_P1;HPM_P2
2023/03/24 00:04:57;;;;;;;4.60;3.57;;;;;;;16.28;46.53;98582.16;10357521;28;20237;-39
2023/03/24 00:09:59;;;;;;;4.20;3.80;;;;;;;16.35;47.14;98580.94;10361488;28;20245;-40
2023/03/24 00:15:01;;;;;;;4.53;3.73;;;;;;;17.49;44.73;98528.75;10359477;28;20268;-39
2023/03/24 00:20:14;;;;;;;3.77;3.27;;;;;;;16.31;45.91;98587.88;10360606;28;20289;-39
2023/03/24 00:25:18;;;;;;;4.30;3.60;;;;;;;15.59;46.56;98575.28;10366779;28;20252;-40
2023/03/24 00:30:21;;;;;;;4.50;3.63;;;;;;;15.91;46.08;98535.03;10361412;28;20212;-39
2023/03/24 00:35:23;;;;;;;4.30;3.07;;;;;;;15.90;46.67;98530.69;10360307;28;20912;-38
2023/03/24 00:40:26;;;;;;;5.60;3.77;;;;;;;15.72;46.39;98534.47;10369028;28;20202;-37
2023/03/24 00:45:33;;;;;;;3.37;3.03;;;;;;;14.78;47.57;98503.63;10359749;28;20232;-38
2023/03/24 00:50:35;;;;;;;4.40;3.50;;;;;;;13.46;48.96;98434.41;10365279;28;20243;-38
2023/03/24 00:55:36;;;;;;;3.90;3.20;;;;;;;15.41;46.54;98547.50;10358898;28;20671;-38
2023/03/24 01:00:40;;;;;;;3.83;3.03;;;;;;;16.59;44.05;98510.44;10361998;28;20977;-40
2023/03/24 01:05:47;;;;;;;8.43;3.37;;;;;;;16.59;44.21;98513.13;10355556;28;20241;-39
2023/03/24 01:10:49;;;;;;;4.50;3.20;;;;;;;16.78;43.56;98492.78;10355084;28;20244;-38
2023/03/24 01:15:51;;;;;;;7.47;4.50;;;;;;;16.85;43.77;98510.66;10355864;28;20307;-38
2023/03/24 01:20:53;;;;;;;4.57;3.73;;;;;;;16.34;44.70;98511.00;10355573;28;20237;-39
2023/03/24 01:25:55;;;;;;;5.53;3.57;;;;;;;16.27;44.86;98497.69;10351115;28;20256;-39
2023/03/24 01:30:57;;;;;;;3.50;3.17;;;;;;;16.02;45.38;98515.19;10354397;28;20244;-39
2023/03/24 01:35:59;;;;;;;6.13;3.30;;;;;;;16.19;45.28;98506.19;10358813;28;20237;-38
2023/03/24 01:41:01;;;;;;;7.93;3.27;;;;;;;15.54;46.49;98546.34;10345758;28;20647;-39
2023/03/24 01:46:06;;;;;;;4.73;3.20;;;;;;;15.76;46.16;98516.75;10361240;28;20295;-38
2023/03/24 01:51:34;;;;;;;3.50;3.20;;;;;;;15.64;46.33;98505.25;10347406;28;20614;-39
2023/03/24 01:56:40;;;;;;;4.50;3.43;;;;;;;15.30;46.95;98511.50;10348910;28;20255;-38
2023/03/24 02:01:42;;;;;;;3.10;2.80;;;;;;;16.01;45.00;98469.56;10352341;28;20675;-38
2023/03/24 02:06:45;;;;;;;2.50;2.30;;;;;;;15.44;45.51;98482.31;10360780;28;20233;-38
2023/03/24 02:11:47;;;;;;;3.33;2.90;;;;;;;15.57;45.56;98507.31;10355959;28;20902;-38
2023/03/24 02:17:00;;;;;;;3.83;2.97;;;;;;;15.06;45.73;98499.25;10357104;28;20242;-38
2023/03/24 02:22:25;;;;;;;6.67;3.50;;;;;;;14.86;46.89;98488.97;10364626;28;20233;-38
2023/03/24 02:27:47;;;;;;;3.40;3.10;;;;;;;14.67;47.97;98504.50;10367912;28;20233;-38
2023/03/24 02:33:02;;;;;;;4.87;3.70;;;;;;;16.00;46.20;98422.09;10357935;28;20236;-38
2023/03/24 02:38:34;;;;;;;4.67;3.43;;;;;;;15.87;45.76;98436.78;10359145;28;20240;-39
2023/03/24 02:44:04;;;;;;;4.47;3.40;;;;;;;15.37;46.56;98430.47;10369422;28;20375;-37
2023/03/24 02:49:30;;;;;;;4.23;3.37;;;;;;;13.08;50.23;98373.91;10358699;28;20244;-39
2023/03/24 02:54:47;;;;;;;6.13;3.43;;;;;;;16.04;46.26;98444.78;10358953;28;20225;-38
2023/03/24 03:00:17;;;;;;;3.33;2.87;;;;;;;15.58;45.31;98426.19;10354515;28;20239;-39
2023/03/24 03:05:28;;;;;;;4.10;3.10;;;;;;;15.05;46.39;98446.44;10356090;28;20237;-38
2023/03/24 03:10:36;;;;;;;5.33;3.20;;;;;;;16.27;45.00;98459.91;10361852;28;20735;-38
2023/03/24 03:15:43;;;;;;;5.50;3.30;;;;;;;15.66;45.68;98444.63;10356067;28;20250;-38
2023/03/24 03:20:51;;;;;;;3.60;3.10;;;;;;;14.61;48.11;98541.31;10321772;28;20315;-39
2023/03/24 03:26:04;;;;;;;4.90;4.20;;;;;;;13.37;50.17;98488.72;10356935;28;20234;-38
2023/03/24 03:31:13;;;;;;;4.23;3.83;;;;;;;13.63;50.32;98541.16;10361514;28;20648;-38
2023/03/24 03:36:26;;;;;;;4.33;3.90;;;;;;;13.13;50.79;98515.56;10362340;28;20324;-38
2023/03/24 03:41:29;;;;;;;5.27;3.73;;;;;;;13.54;49.89;98543.38;10354964;28;20234;-38
2023/03/24 03:46:31;;;;;;;5.37;3.80;;;;;;;14.06;49.48;98561.47;10357317;28;20251;-38
2023/03/24 03:51:33;;;;;;;4.00;3.30;;;;;;;13.40;50.63;98574.25;10352763;28;20230;-37
2023/03/24 03:56:37;;;;;;;4.53;3.63;;;;;;;14.36;49.16;98595.47;10359721;28;20238;-38
2023/03/24 04:01:40;;;;;;;5.67;3.53;;;;;;;14.02;49.56;98598.78;10346234;28;20205;-40
2023/03/24 04:06:43;;;;;;;4.37;3.97;;;;;;;13.70;49.59;98584.06;10322347;28;20241;-38
2023/03/24 04:12:11;;;;;;;8.13;3.97;;;;;;;13.66;51.83;98616.78;10360239;28;20236;-38
2023/03/24 04:17:54;;;;;;;5.37;3.87;;;;;;;12.81;55.57;98619.72;10348323;28;20241;-38
2023/03/24 04:23:08;;;;;;;5.20;4.53;;;;;;;13.83;54.90;98624.16;10359596;28;20245;-39
2023/03/24 04:28:31;;;;;;;6.93;4.90;;;;;;;13.81;54.52;98632.44;10361597;28;20240;-39
2023/03/24 04:34:02;;;;;;;6.90;5.03;;;;;;;13.33;55.18;98611.97;10357410;28;20320;-39
2023/03/24 04:39:04;;;;;;;9.10;6.03;;;;;;;13.62;55.89;98634.44;10356420;28;20243;-40
2023/03/24 04:44:06;;;;;;;7.43;6.10;;;;;;;13.68;56.01;98643.41;10358747;28;20305;-39
2023/03/24 04:49:08;;;;;;;6.23;4.77;;;;;;;14.09;55.03;98663.22;10362800;28;20236;-39
2023/03/24 04:54:10;;;;;;;7.40;5.30;;;;;;;14.45;55.02;98661.31;10353916;28;20590;-39
2023/03/24 04:59:14;;;;;;;6.37;5.17;;;;;;;14.88;54.06;98680.75;10359195;28;20236;-40
2023/03/24 05:04:17;;;;;;;8.23;5.27;;;;;;;14.88;54.75;98689.66;10353619;28;20604;-39
2023/03/24 05:09:21;;;;;;;6.07;5.37;;;;;;;15.02;53.99;98679.44;10356238;28;20583;-40
2023/03/24 05:14:23;;;;;;;5.57;5.03;;;;;;;14.53;54.80;98678.97;10356084;28;20232;-39
2023/03/24 05:19:25;;;;;;;5.60;5.03;;;;;;;14.86;54.55;98689.06;10358745;28;20231;-39
2023/03/24 05:24:26;;;;;;;5.13;4.63;;;;;;;14.85;54.28;98698.22;10348746;28;20710;-40
2023/03/24 05:29:28;;;;;;;5.67;4.80;;;;;;;14.81;54.28;98677.34;10357940;28;20229;-39
2023/03/24 05:34:30;;;;;;;5.70;4.43;;;;;;;14.23;55.17;98690.69;10360988;28;20248;-39
2023/03/24 05:39:32;;;;;;;4.53;4.13;;;;;;;14.07;55.41;98681.47;10365836;28;20737;-38
2023/03/24 05:44:33;;;;;;;4.73;4.13;;;;;;;15.74;52.37;98725.72;10360574;28;20225;-39
2023/03/24 05:49:35;;;;;;;4.80;4.30;;;;;;;15.14;53.08;98680.19;10365235;28;20260;-40
2023/03/24 05:54:38;;;;;;;5.50;4.27;;;;;;;12.81;58.39;98660.81;10372438;28;20259;-39
2023/03/24 05:59:40;;;;;;;4.63;4.03;;;;;;;13.47;57.61;98693.19;10370634;28;20331;-38
2023/03/24 06:04:47;;;;;;;4.37;3.90;;;;;;;13.38;58.72;98716.03;10371633;28;20240;-39
2023/03/24 06:09:51;;;;;;;5.00;3.70;;;;;;;15.20;54.83;98731.47;10363582;28;20229;-38
2023/03/24 06:14:53;;;;;;;5.00;4.40;;;;;;;15.46;54.17;98741.66;10366078;28;20299;-38
2023/03/24 06:20:01;;;;;;;4.90;4.33;;;;;;;13.29;57.98;98694.91;10370081;28;20847;-39
2023/03/24 06:25:03;;;;;;;5.80;4.90;;;;;;;14.14;57.16;98752.13;10384916;23;20423;-39
2023/03/24 06:30:07;;;;;;;6.23;4.60;;;;;;;13.39;58.06;98752.63;10286116;28;20322;-37
2023/03/24 06:35:09;;;;;;;5.57;5.00;;;;;;;13.51;57.99;98736.53;10289896;28;20360;-39
2023/03/24 06:40:14;;;;;;;5.10;4.30;;;;;;;13.23;58.55;98746.81;10287091;28;20242;-37
2023/03/24 06:45:16;;;;;;;5.27;3.97;;;;;;;13.03;59.87;98787.34;10285888;28;20964;-37
2023/03/24 06:50:18;;;;;;;4.83;4.07;;;;;;;13.36;58.33;98782.63;10287188;28;20621;-37
2023/03/24 06:55:21;;;;;;;4.30;3.90;;;;;;;13.98;57.28;98818.13;10279492;28;20241;-39
2023/03/24 07:00:24;;;;;;;3.47;3.17;;;;;;;13.55;58.04;98824.56;10284793;28;20278;-37
2023/03/24 07:05:26;;;;;;;4.00;3.60;;;;;;;13.26;58.43;98844.91;10284290;28;20239;-39
2023/03/24 07:10:28;;;;;;;4.83;3.00;;;;;;;13.27;59.55;98835.81;10282054;28;20619;-37
2023/03/24 07:15:30;;;;;;;4.87;3.77;;;;;;;11.30;64.38;98796.75;10284589;28;20254;-39
2023/03/24 07:20:32;;;;;;;3.97;3.57;;;;;;;13.35;59.45;98867.00;10287923;28;20341;-37
2023/03/24 07:25:33;;;;;;;4.50;3.70;;;;;;;12.13;62.66;98873.59;10283055;28;20321;-39
2023/03/24 07:30:35;;;;;;;4.83;4.20;;;;;;;11.82;63.57;98872.56;10288897;28;20716;-39
2023/03/24 07:35:42;;;;;;;7.07;4.77;;;;;;;11.41;64.04;98836.28;10284471;28;20241;-39
2023/03/24 07:40:44;;;;;;;5.70;4.37;;;;;;;11.21;64.59;98820.28;10289709;28;20743;-39
2023/03/24 07:45:46;;;;;;;6.60;4.47;;;;;;;11.43;65.29;98844.91;10278766;28;20243;-39
2023/03/24 07:50:51;;;;;;;4.07;3.20;;;;;;;10.89;66.06;98780.03;10284101;28;20263;-39
2023/03/24 07:55:52;;;;;;;6.83;5.07;;;;;;;11.54;65.33;98886.28;10279480;28;20325;-39
2023/03/24 08:00:54;;;;;;;6.47;5.00;;;;;;;11.97;64.76;98862.38;10290352;28;20229;-38
2023/03/24 08:05:56;;;;;;;6.63;5.37;;;;;;;12.16;63.74;98900.84;10280072;28;20238;-39
2023/03/24 08:10:58;;;;;;;4.63;4.03;;;;;;;11.76;65.25;98890.34;10285921;28;20229;-39
2023/03/24 08:15:59;;;;;;;7.00;4.70;;;;;;;12.85;62.66;98933.16;10278854;28;20234;-37
2023/03/24 08:21:01;;;;;;;6.83;4.83;;;;;;;12.61;62.31;98909.84;10282306;28;20751;-39
2023/03/24 08:26:03;;;;;;;6.50;5.10;;;;;;;13.21;61.52;98989.84;10283821;28;20239;-38
2023/03/24 08:31:04;;;;;;;6.40;5.00;;;;;;;13.25;59.96;98950.75;10284101;28;20233;-39
2023/03/24 08:36:07;;;;;;;5.07;4.40;;;;;;;13.13;60.37;98977.53;10285901;28;20722;-38
2023/03/24 08:41:08;;;;;;;6.40;4.10;;;;;;;12.35;62.82;98949.19;10281409;28;20239;-37
2023/03/24 08:46:11;;;;;;;7.00;4.77;;;;;;;12.84;61.27;98947.63;10284635;28;20732;-38
2023/03/24 08:51:16;;;;;;;4.50;3.70;;;;;;;12.59;62.25;98931.53;10281931;28;20234;-39
2023/03/24 08:56:18;;;;;;;6.00;4.60;;;;;;;13.09;61.09;98977.16;10281243;28;20238;-38
2023/03/24 09:01:21;;;;;;;5.80;4.80;;;;;;;13.97;58.86;99002.09;10281383;28;20583;-37
2023/03/24 09:06:23;;;;;;;6.33;4.53;;;;;;;13.31;59.52;98941.81;10276554;28;20258;-37
2023/03/24 09:11:25;;;;;;;7.97;5.33;;;;;;;15.33;56.74;99086.97;10280431;28;20206;-39
2023/03/24 09:16:27;;;;;;;7.27;4.87;;;;;;;12.92;59.73;98898.19;10281869;28;20232;-39
2023/03/24 09:21:29;;;;;;;6.57;4.20;;;;;;;11.94;60.89;98827.94;10282711;28;20265;-39
2023/03/24 09:26:32;;;;;;;5.97;4.70;;;;;;;15.71;56.21;99083.03;10283615;28;20332;-37
2023/03/24 09:31:34;;;;;;;5.00;4.40;;;;;;;14.09;58.88;98958.28;10276963;28;20238;-39
2023/03/24 09:36:36;;;;;;;4.30;3.90;;;;;;;12.81;60.05;98886.31;10283247;28;20242;-39
2023/03/24 09:41:38;;;;;;;4.77;3.53;;;;;;;12.84;61.31;98946.78;10283542;28;20238;-39
2023/03/24 09:47:21;;;;;;;4.10;3.70;;;;;;;13.24;58.95;98925.75;10272968;28;20245;-36
2023/03/24 09:52:32;;;;;;;3.87;3.57;;;;;;;13.93;57.32;98967.78;10183631;29;20237;-39
2023/03/24 09:57:44;;;;;;;4.70;4.27;;;;;;;12.72;60.01;98911.78;10261169;28;21025;-39
2023/03/24 10:02:46;;;;;;;4.03;3.37;;;;;;;11.91;60.15;98863.25;10278604;28;20248;-39
2023/03/24 10:07:59;;;;;;;3.90;3.50;;;;;;;13.37;57.63;98972.38;10281544;28;20681;-36
2023/03/24 10:13:19;;;;;;;3.83;3.20;;;;;;;14.12;57.37;99030.47;10275173;28;20234;-38
2023/03/24 10:18:39;;;;;;;4.33;3.83;;;;;;;13.90;56.02;98982.50;10274980;28;20230;-39
2023/03/24 10:24:00;;;;;;;5.83;2.90;;;;;;;12.58;59.02;98948.66;10274769;28;20336;-38
2023/03/24 10:29:13;;;;;;;3.70;3.40;;;;;;;14.55;55.84;99076.09;10272537;28;20234;-38
2023/03/24 10:34:14;;;;;;;3.77;3.20;;;;;;;13.49;56.57;99002.81;10275260;28;20592;-36
2023/03/24 10:39:16;;;;;;;3.20;2.73;;;;;;;13.15;58.48;98999.63;10280072;28;20245;-38
2023/03/24 10:44:27;;;;;;;3.80;3.43;;;;;;;15.44;53.33;99102.34;10278337;28;20258;-38
2023/03/24 10:49:29;;;;;;;3.70;3.30;;;;;;;16.06;52.26;99112.66;10280285;28;20235;-38
2023/03/24 10:54:31;;;;;;;4.50;4.10;;;;;;;15.94;52.72;99082.16;10281904;28;20268;-39
2023/03/24 10:59:37;;;;;;;5.83;3.67;;;;;;;14.61;54.96;98979.28;10281815;28;20610;-36
2023/03/24 11:06:32;;;;;;;3.53;3.00;;;;;;;11.29;62.49;98991.44;10438416;28;20796;-67
2023/03/24 11:11:34;;;;;;;3.10;2.83;;;;;;;13.90;58.66;99100.03;10295808;28;20855;-66
2023/03/24 11:16:41;;;;;;;6.40;3.23;;;;;;;13.38;59.54;99071.56;10338243;28;20244;-68
2023/03/24 11:21:43;;;;;;;3.67;3.37;;;;;;;14.32;56.90;99108.28;10330494;28;20233;-70
2023/03/24 11:26:55;;;;;;;3.10;2.80;;;;;;;14.18;57.64;99092.28;10339334;28;20252;-67
2023/03/24 11:32:00;;;;;;;5.13;3.27;;;;;;;14.39;56.92;99114.38;10331003;28;20230;-69
2023/03/24 11:37:11;;;;;;;3.57;2.90;;;;;;;13.23;57.53;99108.66;10337465;28;20237;-67
2023/03/24 11:42:17;;;;;;;6.37;3.13;;;;;;;10.20;61.58;99012.09;10339662;28;20225;-71
2023/03/24 11:47:30;;;;;;;5.73;3.33;;;;;;;11.58;58.21;99100.00;10327430;28;20248;-70
2023/03/24 11:52:38;;;;;;;7.70;2.80;;;;;;;10.50;59.04;99062.59;10339079;28;20586;-70
2023/03/24 11:58:07;;;;;;;5.27;3.13;;;;;;;13.36;55.35;99196.44;10341481;28;20230;-70
2023/03/24 12:03:38;;;;;;;3.47;2.50;;;;;;;10.76;58.96;99083.28;10328357;28;20264;-70
2023/03/24 12:08:55;;;;;;;4.33;2.80;;;;;;;11.09;59.75;99122.66;10342710;28;20252;-69
2023/03/24 12:14:02;;;;;;;5.20;3.40;;;;;;;11.31;58.80;99101.88;10329018;28;20226;-70
2023/03/24 12:19:18;;;;;;;4.40;2.33;;;;;;;12.03;57.65;99142.25;10305961;28;20967;-70
2023/03/24 12:24:53;;;;;;;4.70;2.67;;;;;;;12.15;56.87;99153.97;10305527;28;20238;-70
2023/03/24 12:30:14;;;;;;;4.63;2.83;;;;;;;11.89;56.60;99128.03;10314398;28;20285;-70
2023/03/24 12:35:37;;;;;;;3.03;2.73;;;;;;;12.33;55.63;99142.59;10350196;23;20268;-39
2023/03/24 12:40:52;;;;;;;5.37;2.60;;;;;;;11.83;54.51;99117.31;10343190;28;20773;-36
2023/03/24 12:45:56;;;;;;;5.23;3.07;;;;;;;12.02;54.63;99119.13;10338529;28;20241;-36
2023/03/24 12:51:41;;;;;;;6.40;2.97;;;;;;;13.12;53.76;99204.19;10347079;28;20221;-38
2023/03/24 12:57:15;;;;;;;6.83;2.60;;;;;;;13.64;52.25;99231.78;10310968;28;20238;-38
2023/03/24 13:02:34;;;;;;;4.40;2.30;;;;;;;12.74;54.31;99135.22;10373731;28;20237;-38
2023/03/24 13:07:42;;;;;;;5.80;2.80;;;;;;;13.69;53.20;99190.00;10387977;28;20243;-35
2023/03/24 13:12:55;;;;;;;5.53;2.23;;;;;;;14.03;53.33;99212.84;10392914;28;20227;-35
2023/03/24 13:17:59;;;;;;;4.70;2.50;;;;;;;14.90;51.76;99225.44;10386048;28;20722;-38
2023/03/24 13:23:26;;;;;;;6.97;3.57;;;;;;;13.71;54.64;99118.00;10386947;28;20232;-38
2023/03/24 13:28:35;;;;;;;5.27;2.50;;;;;;;14.31;53.68;99150.50;10384836;28;20235;-37
2023/03/24 13:33:39;;;;;;;4.33;2.30;;;;;;;14.23;53.47;99099.69;10383342;28;20233;-38
2023/03/24 13:38:51;;;;;;;5.63;2.80;;;;;;;14.19;52.89;99080.47;10390114;28;20745;-37
2023/03/24 13:44:00;;;;;;;6.27;2.40;;;;;;;15.07;52.03;99109.78;10391970;28;20237;-38
2023/03/24 13:49:05;;;;;;;6.93;3.50;;;;;;;15.64;51.20;99155.97;10386045;28;20228;-37
2023/03/24 13:54:18;;;;;;;3.43;2.53;;;;;;;15.18;52.18;99075.81;10386148;28;20225;-37
2023/03/24 13:59:25;;;;;;;6.03;3.00;;;;;;;15.19;51.91;99064.00;10392582;28;20221;-38
2023/03/24 14:04:28;;;;;;;4.87;2.90;;;;;;;15.65;52.07;99081.25;10384111;28;20224;-38
2023/03/24 14:09:31;;;;;;;2.67;2.20;;;;;;;15.28;52.55;99036.44;10393696;28;20718;-38
2023/03/24 14:14:54;;;;;;;3.30;2.13;;;;;;;14.83;53.66;98988.50;10391034;28;20326;-38
2023/03/24 14:20:03;;;;;;;3.50;2.33;;;;;;;14.60;53.88;98989.25;10387897;28;20612;-37
2023/03/24 14:25:21;;;;;;;5.23;2.17;;;;;;;14.46;53.81;98967.09;10391716;28;20256;-38
2023/03/24 14:30:32;;;;;;;2.83;2.30;;;;;;;15.39;52.34;99013.25;10392760;28;20235;-37
2023/03/24 14:35:44;;;;;;;5.00;2.87;;;;;;;16.36;50.55;99038.78;10385143;28;20240;-37
2023/03/24 14:40:55;;;;;;;3.10;2.30;;;;;;;15.51;51.67;98994.38;10383352;28;20243;-37
2023/03/24 14:45:58;;;;;;;3.27;2.87;;;;;;;14.91;51.68;98953.16;10373293;28;20228;-37
2023/03/24 14:51:35;;;;;;;2.37;2.07;;;;;;;13.58;54.09;98901.22;10384937;28;20625;-37
2023/03/24 14:56:40;;;;;;;2.57;2.03;;;;;;;13.42;52.99;98875.78;10377117;28;20268;-36
2023/03/24 15:01:47;;;;;;;2.30;1.80;;;;;;;15.07;51.43;98967.00;10382173;28;20236;-38
2023/03/24 15:06:50;;;;;;;3.20;1.60;;;;;;;15.20;51.25;98964.06;10382607;28;20767;-37
2023/03/24 15:12:00;;;;;;;3.10;2.17;;;;;;;14.80;51.10;98928.88;10385681;28;20236;-37
2023/03/24 15:17:25;;;;;;;5.17;2.33;;;;;;;16.28;50.23;99016.75;10387927;28;20241;-37
2023/03/24 15:22:26;;;;;;;2.67;2.00;;;;;;;15.69;51.35;98956.50;10380321;28;20257;-37
2023/03/24 15:27:30;;;;;;;4.70;2.20;;;;;;;15.37;51.19;98934.50;10387587;28;20240;-37
2023/03/24 15:32:37;;;;;;;2.33;2.13;;;;;;;14.72;52.23;98870.78;10384758;28;20336;-36
2023/03/24 15:37:46;;;;;;;2.40;2.20;;;;;;;14.71;53.76;98901.47;10385364;28;20303;-37
2023/03/24 15:42:49;;;;;;;2.70;2.33;;;;;;;15.48;53.03;98946.31;10388187;28;20721;-37
2023/03/24 15:47:52;;;;;;;2.20;2.00;;;;;;;15.62;52.11;98925.31;10384463;28;20240;-37
2023/03/24 15:53:02;;;;;;;2.70;2.50;;;;;;;15.55;51.95;98916.56;10391392;28;20620;-37
2023/03/24 15:58:56;;;;;;;2.23;1.90;;;;;;;15.72;51.75;98928.22;10393389;28;20240;-37
2023/03/24 16:04:00;;;;;;;2.73;2.00;;;;;;;16.33;50.26;98939.41;10359685;28;20621;-37
2023/03/24 16:09:10;;;;;;;2.13;1.93;;;;;;;15.30;51.00;98858.31;10395339;28;20699;-37
2023/03/24 16:14:22;;;;;;;2.03;1.77;;;;;;;14.45;51.41;98820.09;10398780;28;20239;-37
2023/03/24 16:19:25;;;;;;;2.40;1.70;;;;;;;13.39;53.30;98804.50;10395977;28;20236;-37
2023/03/24 16:24:26;;;;;;;4.20;1.80;;;;;;;15.01;51.50;98871.72;10399304;28;20294;-36
2023/03/24 16:29:28;;;;;;;1.87;1.53;;;;;;;15.05;50.74;98858.59;10391932;28;20233;-37
2023/03/24 16:34:30;;;;;;;2.20;1.70;;;;;;;15.23;50.52;98863.03;10391509;28;20726;-37
2023/03/24 16:39:32;;;;;;;2.20;1.87;;;;;;;13.93;52.44;98782.22;10391033;28;20232;-37
2023/03/24 16:44:34;;;;;;;1.63;1.57;;;;;;;12.45;56.53;98758.22;10385368;28;21070;-37
2023/03/24 16:49:36;;;;;;;2.10;2.00;;;;;;;14.51;53.04;98826.41;10393112;28;20227;-36
2023/03/24 16:54:38;;;;;;;2.53;2.33;;;;;;;14.96;52.69;98852.78;10400046;28;20231;-37
2023/03/24 16:59:40;;;;;;;4.57;2.50;;;;;;;14.41;53.09;98837.78;10384679;28;20603;-37
2023/03/24 17:04:43;;;;;;;5.43;3.57;;;;;;;13.98;53.08;98815.44;10394265;28;20601;-37
2023/03/24 17:09:48;;;;;;;2.33;2.10;;;;;;;14.78;51.99;98875.25;10388882;28;20610;-37
2023/03/24 17:14:51;;;;;;;2.90;2.50;;;;;;;14.84;50.81;98877.03;10373334;28;20247;-37
2023/03/24 17:19:53;;;;;;;2.00;1.90;;;;;;;13.93;51.89;98826.06;10380616;28;20776;-37
2023/03/24 17:24:57;;;;;;;1.90;1.80;;;;;;;14.70;51.26;98868.34;10386916;28;20243;-37
2023/03/24 17:29:58;;;;;;;14.73;9.00;;;;;;;15.19;49.93;98896.91;10394247;28;20239;-37
2023/03/24 17:35:01;;;;;;;2.30;2.10;;;;;;;13.03;54.47;98872.47;10382859;28;20249;-38
2023/03/24 17:40:09;;;;;;;2.57;2.20;;;;;;;14.45;51.49;98883.88;10396871;28;20937;-37
2023/03/24 17:45:16;;;;;;;2.83;1.97;;;;;;;14.71;50.21;98891.53;10386109;28;20229;-35
2023/03/24 17:50:18;;;;;;;2.80;2.20;;;;;;;13.67;52.41;98879.19;10388906;28;20235;-38
2023/03/24 17:55:20;;;;;;;2.20;2.10;;;;;;;14.37;50.28;98890.41;10383843;28;20229;-37
2023/03/24 18:00:21;;;;;;;2.43;2.23;;;;;;;13.90;49.28;98826.53;10387932;28;20350;-38
2023/03/24 18:05:23;;;;;;;2.60;2.40;;;;;;;13.87;51.12;98878.09;10387945;28;20229;-37
2023/03/24 18:10:25;;;;;;;2.37;2.10;;;;;;;13.76;50.83;98884.25;10386693;28;20339;-37
2023/03/24 18:15:27;;;;;;;5.17;2.37;;;;;;;13.54;50.76;98870.47;10391734;28;20586;-38
2023/03/24 18:20:28;;;;;;;2.73;2.53;;;;;;;14.01;50.60;98903.75;10391115;28;20608;-37
2023/03/24 18:25:31;;;;;;;5.93;3.00;;;;;;;13.86;51.04;98922.16;10388172;28;20229;-37
2023/03/24 18:30:33;;;;;;;4.47;3.80;;;;;;;13.38;51.71;98904.13;10385009;28;20221;-37
2023/03/24 18:35:34;;;;;;;6.27;3.17;;;;;;;12.64;51.70;98845.00;10381894;28;20236;-36
2023/03/24 18:40:36;;;;;;;2.67;2.47;;;;;;;12.76;52.70;98918.38;10384941;28;20314;-37
2023/03/24 18:45:38;;;;;;;3.27;2.97;;;;;;;12.18;52.99;98871.94;10382821;28;20221;-36
2023/03/24 18:50:40;;;;;;;2.93;2.57;;;;;;;14.30;50.13;98952.41;10406336;22;20262;-37
2023/03/24 18:55:45;;;;;;;5.07;2.60;;;;;;;12.18;53.29;98885.34;10376791;28;20233;-37
2023/03/24 19:00:49;;;;;;;2.93;2.20;;;;;;;13.01;50.98;98901.38;10344431;28;20253;-37
2023/03/24 19:05:51;;;;;;;2.90;2.63;;;;;;;13.49;50.49;98900.69;10340881;28;20241;-37
2023/03/24 19:10:54;;;;;;;2.70;2.27;;;;;;;12.46;52.35;98905.56;10343545;28;20236;-37
2023/03/24 19:15:56;;;;;;;3.40;2.57;;;;;;;13.08;51.68;98929.84;10349988;28;20233;-36
2023/03/24 19:21:00;;;;;;;2.00;1.87;;;;;;;11.02;54.77;98795.25;10346858;28;20389;-36
2023/03/24 19:26:02;;;;;;;4.23;2.70;;;;;;;;;;10349992;28;20280;-35
2023/03/24 19:31:07;;;;;;;3.50;2.67;;;;;;;12.66;51.63;98937.66;10357154;28;20240;-36
2023/03/24 19:36:09;;;;;;;4.10;2.30;;;;;;;13.35;50.86;98952.97;10359921;28;20283;-36
2023/03/24 19:41:13;;;;;;;2.73;2.43;;;;;;;11.30;54.23;98867.19;10356156;28;20260;-37
2023/03/24 19:46:19;;;;;;;3.10;2.90;;;;;;;12.51;53.16;98948.69;10355752;28;20233;-36
2023/03/24 19:51:22;;;;;;;3.00;2.70;;;;;;;12.67;52.59;98936.63;10357696;28;20311;-35
2023/03/24 19:56:24;;;;;;;2.50;2.30;;;;;;;12.46;52.65;98956.53;10355899;28;20344;-36
2023/03/24 20:01:27;;;;;;;3.30;2.70;;;;;;;12.71;52.71;98940.50;10351240;28;20237;-36
2023/03/24 20:06:29;;;;;;;2.80;2.60;;;;;;;11.57;53.22;98915.31;10350884;28;20225;-35
2023/03/24 20:11:31;;;;;;;3.50;2.60;;;;;;;12.00;52.41;98939.69;10349504;28;20245;-36
2023/03/24 20:16:33;;;;;;;3.77;2.50;;;;;;;11.39;52.62;98898.09;10325476;28;20206;-36
2023/03/24 20:21:35;;;;;;;2.00;1.90;;;;;;;11.76;51.76;98924.34;10373517;28;20245;-36
2023/03/24 20:26:36;;;;;;;3.00;2.80;;;;;;;13.09;50.58;99004.00;10349698;28;20241;-36
2023/03/24 20:31:39;;;;;;;2.83;2.37;;;;;;;14.27;48.11;99043.53;10351490;28;20236;-36
2023/03/24 20:36:42;;;;;;;5.87;2.57;;;;;;;13.45;48.72;98985.53;10356388;28;20233;-36
2023/03/24 20:41:43;;;;;;;2.70;2.40;;;;;;;14.12;48.58;99041.25;10354220;28;20316;-35
2023/03/24 20:46:45;;;;;;;4.33;2.50;;;;;;;12.85;50.10;98977.97;10356571;28;20754;-36
2023/03/24 20:51:47;;;;;;;3.03;2.53;;;;;;;12.67;49.39;98939.31;10351959;28;20245;-36
2023/03/24 20:56:51;;;;;;;3.63;2.40;;;;;;;13.82;48.31;99017.78;10355373;28;20233;-36
2023/03/24 21:01:53;;;;;;;3.23;2.83;;;;;;;11.93;51.33;98954.16;10348992;28;20245;-36
2023/03/24 21:06:54;;;;;;;3.60;3.00;;;;;;;10.86;53.73;98919.63;10355619;28;20229;-36
2023/03/24 21:11:56;;;;;;;2.60;2.40;;;;;;;11.51;52.42;98962.56;10344998;28;20237;-36
2023/03/24 21:16:58;;;;;;;2.70;2.50;;;;;;;12.98;50.44;99020.03;10341288;28;20228;-36
2023/03/24 21:22:01;;;;;;;3.93;2.73;;;;;;;11.61;51.44;98952.22;10347765;28;20304;-36
2023/03/24 21:27:03;;;;;;;4.40;2.50;;;;;;;12.02;50.67;98974.34;10333281;28;20330;-36
2023/03/24 21:32:05;;;;;;;3.10;2.43;;;;;;;12.95;49.38;99009.72;10350882;28;20230;-36
2023/03/24 21:37:11;;;;;;;3.50;2.73;;;;;;;12.90;49.69;99032.66;10347852;28;20263;-36
2023/03/24 21:42:14;;;;;;;2.97;2.67;;;;;;;11.58;51.85;98933.06;10342088;28;20742;-36
2023/03/24 21:47:19;;;;;;;2.97;2.30;;;;;;;11.86;50.80;98966.78;10352007;28;20287;-35
2023/03/24 21:52:20;;;;;;;2.77;2.57;;;;;;;11.38;51.88;98944.66;10347246;28;20280;-36
2023/03/24 21:57:23;;;;;;;5.07;2.90;;;;;;;12.72;50.19;99011.09;10349925;28;20233;-36
2023/03/24 22:02:26;;;;;;;5.23;2.87;;;;;;;12.15;51.31;99019.88;10351797;28;20242;-36
2023/03/24 22:07:36;;;;;;;3.17;2.60;;;;;;;12.36;52.69;99076.94;10349256;28;20233;-37
2023/03/24 22:12:38;;;;;;;4.13;2.57;;;;;;;12.47;52.99;99072.78;10353986;28;20382;-37
2023/03/24 22:17:40;;;;;;;2.83;2.50;;;;;;;12.26;53.35;99073.88;10331011;28;20224;-37
2023/03/24 22:22:43;;;;;;;2.67;2.47;;;;;;;13.10;51.00;99042.44;10349333;28;20629;-37
2023/03/24 22:27:47;;;;;;;2.60;2.40;;;;;;;12.50;51.55;99058.94;10343964;28;20323;-37
2023/03/24 22:32:53;;;;;;;2.40;1.80;;;;;;;11.24;55.36;99021.53;10341592;28;20238;-37
2023/03/24 22:37:55;;;;;;;3.87;2.63;;;;;;;11.55;54.89;99054.88;10335751;28;20268;-37
2023/03/24 22:42:56;;;;;;;4.47;2.63;;;;;;;11.12;54.71;99036.59;10347345;28;20232;-37
2023/03/24 22:47:58;;;;;;;2.73;2.53;;;;;;;11.83;53.88;99114.63;10354553;28;20241;-36
2023/03/24 22:53:00;;;;;;;3.07;2.20;;;;;;;11.15;54.50;99078.16;10353407;28;20229;-37
2023/03/24 22:58:02;;;;;;;2.87;1.93;;;;;;;11.74;53.20;99128.28;10345895;28;20230;-36
2023/03/24 23:03:03;;;;;;;2.40;2.20;;;;;;;10.37;56.85;99055.34;10345480;28;20233;-35
2023/03/24 23:08:06;;;;;;;2.27;2.07;;;;;;;8.47;59.12;98868.56;10346228;28;20230;-36
2023/03/24 23:13:09;;;;;;;3.70;2.30;;;;;;;10.03;56.64;99102.53;10348847;28;20252;-35
2023/03/24 23:18:11;;;;;;;3.57;2.20;;;;;;;11.92;52.60;99134.84;10353958;28;20233;-36
2023/03/24 23:23:13;;;;;;;2.33;2.13;;;;;;;12.17;51.23;99153.75;10346980;28;20240;-36
2023/03/24 23:28:14;;;;;;;4.10;2.90;;;;;;;12.89;49.91;99170.66;10346718;28;20261;-35
2023/03/24 23:33:16;;;;;;;3.10;2.20;;;;;;;11.49;51.15;99154.84;10337735;28;20642;-36
2023/03/24 23:38:18;;;;;;;2.20;2.00;;;;;;;11.24;52.22;99159.97;10339128;28;20246;-36
2023/03/24 23:43:20;;;;;;;2.33;2.10;;;;;;;11.61;50.77;99192.56;10342989;28;20229;-36
2023/03/24 23:48:25;;;;;;;3.13;1.87;;;;;;;12.05;49.11;99168.88;10345129;28;20242;-37
2023/03/24 23:53:28;;;;;;;2.30;1.90;;;;;;;11.24;50.74;99163.47;10344616;28;20229;-36